Waverunner — ZCTE7 — position and weather

sailwx.info

Track history (hours):
 
Tides and Currents Weather Stations Pressure Air Temp Water Temp Dewpoint Dewpoint Depression Visibility Wind Speed Wind Dir Waves Ship Positions

Waverunner

Last reported at 2016-Aug-29 17:33 UTC. Time now 2016-Aug-29 17:59 UTC.
Position N 43°34' E 007°05'.

Length 41 m; draft 2 m.

MMSI: 319804000.

Date/timePositionNaut miles runAvg speedWind from/ knotsBaromVisibWave heightAir tempDewpointWater temp
2016-Aug-29 17:33N 43°34' E 007°05'0 0.0
2016-Aug-29 16:33N 43°34' E 007°05'0 0.0
2016-Aug-29 15:33N 43°34' E 007°05'0 0.0
2016-Aug-29 14:33N 43°34' E 007°05'0 0.0
2016-Aug-29 13:33N 43°34' E 007°05'0 0.0
2016-Aug-29 12:33N 43°34' E 007°05'0 0.4
2016-Aug-29 11:33N 43°34' E 007°04'2 1.9
2016-Aug-29 10:33N 43°32' E 007°05'3 3.4
2016-Aug-29 09:33N 43°35' E 007°08'0 0.0
2016-Aug-29 08:33N 43°35' E 007°08'0 0.0
2016-Aug-29 07:33N 43°35' E 007°08'0 0.0
2016-Aug-29 06:33N 43°35' E 007°08'0 0.0
2016-Aug-29 05:33N 43°35' E 007°08'0 0.0
2016-Aug-29 04:33N 43°35' E 007°08'0 0.0
2016-Aug-29 03:33N 43°35' E 007°08'0 0.0
2016-Aug-29 02:33N 43°35' E 007°08'0 0.0
2016-Aug-29 01:33N 43°35' E 007°08'0 0.0
2016-Aug-29 00:33N 43°35' E 007°08'0 0.0
2016-Aug-28 23:33N 43°35' E 007°08'0 0.0
2016-Aug-28 22:33N 43°35' E 007°08'0 0.0
2016-Aug-28 21:33N 43°35' E 007°08'0 0.0
2016-Aug-28 20:33N 43°35' E 007°08'0 0.0
2016-Aug-28 19:33N 43°35' E 007°08'0 0.0
2016-Aug-28 18:33N 43°35' E 007°08'0 0.0
2016-Aug-28 17:33N 43°35' E 007°08'0 0.0
2016-Aug-28 16:33N 43°35' E 007°08'0 0.0
2016-Aug-28 15:33N 43°35' E 007°08'0 0.0
2016-Aug-28 14:33N 43°35' E 007°08'0 0.0
2016-Aug-28 13:33N 43°35' E 007°08'0 0.0
2016-Aug-28 12:33N 43°35' E 007°08'0 0.0
2016-Aug-28 11:33N 43°35' E 007°08'0 0.0
2016-Aug-28 10:33N 43°35' E 007°08'0 0.0
2016-Aug-28 09:33N 43°35' E 007°08'0 0.0
2016-Aug-28 08:33N 43°35' E 007°08'0 0.0
2016-Aug-28 07:33N 43°35' E 007°08'0 0.0
2016-Aug-28 06:33N 43°35' E 007°08'0 0.0
2016-Aug-28 05:33N 43°35' E 007°08'0 0.0
2016-Aug-28 04:33N 43°35' E 007°08'0 0.4
2016-Aug-28 03:33N 43°35' E 007°09'4414.3
2016-Aug-28 00:27N 43°06' E 007°55'2513.2
2016-Aug-27 22:33N 42°50' E 008°21'1613.9
2016-Aug-27 21:23N 42°39' E 008°38'8 8.8
2016-Aug-27 20:29N 42°34' E 008°46'0 0.0
2016-Aug-27 19:33N 42°34' E 008°46'0 0.0
2016-Aug-27 18:19N 42°34' E 008°46'0 0.0
2016-Aug-27 17:33N 42°34' E 008°46'0 0.0
2016-Aug-27 16:33N 42°34' E 008°46'0 0.0
2016-Aug-27 15:33N 42°34' E 008°46'4 4.1
2016-Aug-27 14:32N 42°33' E 008°41'  
2016-Aug-21 02:21N 40°49' E 009°41'0 0.0
2016-Aug-20 18:30N 40°49' E 009°41'0 0.0
2016-Aug-20 17:33N 40°49' E 009°41'9 1.3
2016-Aug-20 10:33N 40°58' E 009°41'12010.9
2016-Aug-19 23:31N 38°60' E 009°15'1312.9
2016-Aug-19 22:32N 38°56' E 008°59'2 2.5
2016-Aug-19 21:33N 38°55' E 008°56'0 0.0
2016-Aug-19 20:33N 38°56' E 008°56'0 0.0
2016-Aug-19 19:33N 38°55' E 008°56'0 0.0
2016-Aug-19 18:32N 38°56' E 008°56'  
Track history (hours):
 
Tides and Currents Weather Stations Pressure Air Temp Water Temp Dewpoint Dewpoint Depression Visibility Wind Speed Wind Dir Waves Ship Positions

Waverunner

Last reported at 2016-Aug-29 17:33 UTC. Time now 2016-Aug-29 17:59 UTC.
Position N 43°34' E 007°05'.

Length 41 m; draft 2 m.

MMSI: 319804000.

Date/timePositionNaut miles runAvg speedWind from/ knotsBaromVisibWave heightAir tempDewpointWater temp
2016-Aug-29 17:33N 43°34' E 007°05'0 0.0
2016-Aug-29 16:33N 43°34' E 007°05'0 0.0
2016-Aug-29 15:33N 43°34' E 007°05'0 0.0
2016-Aug-29 14:33N 43°34' E 007°05'0 0.0
2016-Aug-29 13:33N 43°34' E 007°05'0 0.0
2016-Aug-29 12:33N 43°34' E 007°05'0 0.4
2016-Aug-29 11:33N 43°34' E 007°04'2 1.9
2016-Aug-29 10:33N 43°32' E 007°05'3 3.4
2016-Aug-29 09:33N 43°35' E 007°08'0 0.0
2016-Aug-29 08:33N 43°35' E 007°08'0 0.0
2016-Aug-29 07:33N 43°35' E 007°08'0 0.0
2016-Aug-29 06:33N 43°35' E 007°08'0 0.0
2016-Aug-29 05:33N 43°35' E 007°08'0 0.0
2016-Aug-29 04:33N 43°35' E 007°08'0 0.0
2016-Aug-29 03:33N 43°35' E 007°08'0 0.0
2016-Aug-29 02:33N 43°35' E 007°08'0 0.0
2016-Aug-29 01:33N 43°35' E 007°08'0 0.0
2016-Aug-29 00:33N 43°35' E 007°08'0 0.0
2016-Aug-28 23:33N 43°35' E 007°08'0 0.0
2016-Aug-28 22:33N 43°35' E 007°08'0 0.0
2016-Aug-28 21:33N 43°35' E 007°08'0 0.0
2016-Aug-28 20:33N 43°35' E 007°08'0 0.0
2016-Aug-28 19:33N 43°35' E 007°08'0 0.0
2016-Aug-28 18:33N 43°35' E 007°08'0 0.0
2016-Aug-28 17:33N 43°35' E 007°08'0 0.0
2016-Aug-28 16:33N 43°35' E 007°08'0 0.0
2016-Aug-28 15:33N 43°35' E 007°08'0 0.0
2016-Aug-28 14:33N 43°35' E 007°08'0 0.0
2016-Aug-28 13:33N 43°35' E 007°08'0 0.0
2016-Aug-28 12:33N 43°35' E 007°08'0 0.0
2016-Aug-28 11:33N 43°35' E 007°08'0 0.0
2016-Aug-28 10:33N 43°35' E 007°08'0 0.0
2016-Aug-28 09:33N 43°35' E 007°08'0 0.0
2016-Aug-28 08:33N 43°35' E 007°08'0 0.0
2016-Aug-28 07:33N 43°35' E 007°08'0 0.0
2016-Aug-28 06:33N 43°35' E 007°08'0 0.0
2016-Aug-28 05:33N 43°35' E 007°08'0 0.0
2016-Aug-28 04:33N 43°35' E 007°08'0 0.4
2016-Aug-28 03:33N 43°35' E 007°09'4414.3
2016-Aug-28 00:27N 43°06' E 007°55'2513.2
2016-Aug-27 22:33N 42°50' E 008°21'1613.9
2016-Aug-27 21:23N 42°39' E 008°38'8 8.8
2016-Aug-27 20:29N 42°34' E 008°46'0 0.0
2016-Aug-27 19:33N 42°34' E 008°46'0 0.0
2016-Aug-27 18:19N 42°34' E 008°46'0 0.0
2016-Aug-27 17:33N 42°34' E 008°46'0 0.0
2016-Aug-27 16:33N 42°34' E 008°46'0 0.0
2016-Aug-27 15:33N 42°34' E 008°46'4 4.1
2016-Aug-27 14:32N 42°33' E 008°41'  
2016-Aug-21 02:21N 40°49' E 009°41'0 0.0
2016-Aug-20 18:30N 40°49' E 009°41'0 0.0
2016-Aug-20 17:33N 40°49' E 009°41'9 1.3
2016-Aug-20 10:33N 40°58' E 009°41'12010.9
2016-Aug-19 23:31N 38°60' E 009°15'1312.9
2016-Aug-19 22:32N 38°56' E 008°59'2 2.5
2016-Aug-19 21:33N 38°55' E 008°56'0 0.0
2016-Aug-19 20:33N 38°56' E 008°56'0 0.0
2016-Aug-19 19:33N 38°55' E 008°56'0 0.0
2016-Aug-19 18:32N 38°56' E 008°56'  

Dump ship's entire track history